首页
METAR-TAF:

METAR-TAF

机场 :

苏丹依斯迈布特拉机场

哥打巴鲁, 马来西亚

纬度: 06-10N, 经度: 102-17E, 海拔: 5米

当前天气观测

该预报发布于56分钟前的05:00 UTC
风速8节,风向东转东北,在北转东北之间变化
温度 26°C
湿度 94%
气压 1012 hPa
能見度: 9000
少量云层高于1000英尺
散云层高于2000英尺
阴天层高于22000英尺
小雨

METAR: WMKC 120500Z 07008KT 030V090 9000 -RA FEW010 SCT020 OVC220 26/25 Q1012

时间: 13:56 (05:56 UTC)

预报

该预报发布于56分钟前的05:00 UTC
预报有效从12日的 06点(UTC)到 13日的 06点(UTC)
风速5节,风向南转西南
能見度: 7000
少量云层高于1000英尺
散云层高于2000英尺
阴天层高于19000英尺
小雨
短暂存在
从 12日的 06点(UTC)到 12日的 11点(UTC)
能見度: 4000
少量云层高于500英尺
少量云层高于1600英尺, 积雨云.
散云层高于1800英尺
阴天层高于15000英尺
雷暴, 雨

TAF: WMKC 120500Z 1206/1306 21005KT 7000 -RA FEW010 SCT020 OVC190 TEMPO 1206/1211 4000 TSRA FEW005 FEW016CB SCT018 OVC150

超过4000个机场的气象观测和天气预报(METAR&TAF报告)。

可查询的气象台以黄色和红色小点在地图上表示。

将鼠标移到小点上方,可查看气象台名称。

然后点击查看天气观测和预报。

如需切换地图:点击带黑十字的绿色按钮放大地图;点击带横线的绿色按钮缩小地图;或者点击绿色箭头查看邻近地区的地图。


METAR-TAF: